createdAt,value
2023-02-06T00:00:13.378Z,58
2023-02-06T00:01:25.605Z,50
2023-02-06T00:02:33.844Z,54
2023-02-06T00:03:42.583Z,56
2023-02-06T00:04:50.980Z,52
2023-02-06T00:05:58.921Z,55
2023-02-06T00:07:06.495Z,49
2023-02-06T00:08:14.877Z,55
2023-02-06T00:09:24.080Z,56
2023-02-06T00:10:32.353Z,56
2023-02-06T00:11:40.521Z,48
2023-02-06T00:12:52.111Z,42
2023-02-06T00:13:59.512Z,48
2023-02-06T00:15:09.282Z,43
2023-02-06T00:16:17.834Z,42
2023-02-06T00:17:30.552Z,37
2023-02-06T00:18:42.817Z,37
2023-02-06T00:19:50.404Z,36
2023-02-06T00:20:59.855Z,39
2023-02-06T00:22:09.520Z,35
2023-02-06T00:23:18.653Z,43
2023-02-06T00:24:27.981Z,29
2023-02-06T00:25:38.733Z,30
2023-02-06T00:26:47.024Z,38
2023-02-06T00:27:55.305Z,37
2023-02-06T00:29:02.781Z,35
2023-02-06T00:30:11.172Z,37
2023-02-06T00:31:20.651Z,34
2023-02-06T00:32:31.797Z,30
2023-02-06T00:33:40.158Z,33
2023-02-06T00:34:49.016Z,33
2023-02-06T00:35:59.381Z,32
2023-02-06T00:37:11.848Z,34
2023-02-06T00:38:20.886Z,29
2023-02-06T00:39:29.541Z,32
2023-02-06T00:40:38.352Z,42
2023-02-06T00:41:48.348Z,35
2023-02-06T00:42:57.802Z,34
2023-02-06T00:44:06.225Z,34
2023-02-06T00:45:15.333Z,45
2023-02-06T00:46:24.814Z,39
2023-02-06T00:47:35.266Z,34
2023-02-06T00:48:46.321Z,34
2023-02-06T00:49:55.288Z,36
2023-02-06T00:51:03.802Z,30
2023-02-06T00:52:13.158Z,34
2023-02-06T00:53:21.828Z,30
2023-02-06T00:54:30.334Z,27
2023-02-06T00:55:39.642Z,35
2023-02-06T00:56:48.786Z,41
2023-02-06T00:57:56.547Z,39
2023-02-06T00:59:05.066Z,46
2023-02-06T01:00:12.866Z,46
2023-02-06T01:01:22.121Z,44
2023-02-06T01:02:32.283Z,41
2023-02-06T01:03:40.653Z,48
2023-02-06T01:04:49.608Z,39
2023-02-06T01:05:59.451Z,43
2023-02-06T01:07:09.534Z,42
2023-02-06T01:08:19.601Z,41
2023-02-06T01:09:29.026Z,43
2023-02-06T01:10:37.485Z,51
2023-02-06T01:11:49.940Z,42
2023-02-06T01:12:59.499Z,47
2023-02-06T01:14:06.835Z,43
2023-02-06T01:15:15.262Z,45
2023-02-06T01:16:23.831Z,47
2023-02-06T01:17:32.068Z,50
2023-02-06T01:18:42.535Z,46
2023-02-06T01:19:52.163Z,52
2023-02-06T01:21:02.091Z,51
2023-02-06T01:22:14.362Z,48
2023-02-06T01:23:25.580Z,45
2023-02-06T01:24:34.788Z,47
2023-02-06T01:25:43.902Z,55
2023-02-06T01:26:53.694Z,48
2023-02-06T01:28:03.963Z,49
2023-02-06T01:29:11.985Z,53
2023-02-06T01:30:21.418Z,50
2023-02-06T01:31:30.015Z,45
2023-02-06T01:32:38.540Z,48
2023-02-06T01:33:46.629Z,49
2023-02-06T01:34:57.787Z,50
2023-02-06T01:36:09.617Z,48
2023-02-06T01:37:20.989Z,54
2023-02-06T01:38:29.858Z,57
2023-02-06T01:39:39.800Z,51
2023-02-06T01:40:48.562Z,55
2023-02-06T01:41:56.809Z,51
2023-02-06T01:43:05.629Z,51
2023-02-06T01:44:15.353Z,55
2023-02-06T01:45:24.121Z,59
2023-02-06T01:46:36.709Z,58
2023-02-06T01:47:48.066Z,56
2023-02-06T01:48:56.781Z,60
2023-02-06T01:50:07.021Z,55
2023-02-06T01:51:16.929Z,56
2023-02-06T01:52:26.544Z,54
2023-02-06T01:53:36.823Z,63
2023-02-06T01:54:46.445Z,55
2023-02-06T01:55:55.317Z,52
2023-02-06T01:57:05.469Z,47
2023-02-06T01:58:14.485Z,54
2023-02-06T01:59:24.769Z,56
2023-02-06T02:00:36.408Z,49
2023-02-06T02:01:46.455Z,48
2023-02-06T02:02:54.425Z,43
2023-02-06T02:04:02.482Z,50
2023-02-06T02:05:11.448Z,52
2023-02-06T02:06:20.810Z,47
2023-02-06T02:07:30.732Z,50
2023-02-06T02:08:41.968Z,53
2023-02-06T02:09:51.134Z,53
2023-02-06T02:10:59.614Z,52
2023-02-06T02:12:07.827Z,57
2023-02-06T02:13:16.696Z,52
2023-02-06T02:14:25.212Z,52
2023-02-06T02:15:33.178Z,55
2023-02-06T02:16:46.241Z,57
2023-02-06T02:18:05.714Z,60
2023-02-06T02:19:25.394Z,58
2023-02-06T02:20:44.896Z,68
2023-02-06T02:21:59.766Z,59
2023-02-06T02:23:20.778Z,59
2023-02-06T02:24:36.004Z,62
2023-02-06T02:25:56.447Z,63
2023-02-06T02:27:10.666Z,65
2023-02-06T02:28:24.083Z,62
2023-02-06T02:29:44.536Z,53
2023-02-06T02:31:03.572Z,61
2023-02-06T02:32:14.171Z,56
2023-02-06T02:33:34.705Z,53
2023-02-06T02:34:53.445Z,58
2023-02-06T02:36:04.372Z,66
2023-02-06T02:37:22.274Z,66
2023-02-06T02:38:41.832Z,60
2023-02-06T02:39:56.117Z,60
2023-02-06T02:41:05.778Z,63
2023-02-06T02:42:24.443Z,63
2023-02-06T02:43:33.205Z,50
2023-02-06T02:44:49.373Z,57
2023-02-06T02:46:05.611Z,56
2023-02-06T02:47:13.287Z,54
2023-02-06T02:48:22.654Z,57
2023-02-06T02:49:34.070Z,53
2023-02-06T02:50:45.298Z,53
2023-02-06T02:51:54.676Z,48
2023-02-06T02:53:02.413Z,53
2023-02-06T02:54:10.180Z,43
2023-02-06T02:55:17.607Z,46
2023-02-06T02:56:26.692Z,43
2023-02-06T02:57:36.692Z,57
2023-02-06T02:58:47.011Z,47
2023-02-06T03:00:02.534Z,51
2023-02-06T03:01:10.582Z,57
2023-02-06T03:02:19.252Z,50
2023-02-06T03:03:30.006Z,46
2023-02-06T03:04:37.688Z,41
2023-02-06T03:05:46.171Z,54
2023-02-06T03:06:59.854Z,46
2023-02-06T03:08:17.618Z,46
2023-02-06T03:09:31.889Z,45
2023-02-06T03:10:47.300Z,53
2023-02-06T03:12:00.450Z,50
2023-02-06T03:13:10.374Z,47
2023-02-06T03:14:26.198Z,39
2023-02-06T03:15:40.561Z,45
2023-02-06T03:16:57.797Z,42
2023-02-06T03:18:09.229Z,46
2023-02-06T03:19:17.881Z,47
2023-02-06T03:20:28.800Z,50
2023-02-06T03:21:39.624Z,54
2023-02-06T03:22:49.152Z,51
2023-02-06T03:23:56.530Z,57
2023-02-06T03:25:06.518Z,51
2023-02-06T03:26:15.635Z,52
2023-02-06T03:27:24.212Z,58
2023-02-06T03:28:33.985Z,63
2023-02-06T03:29:46.944Z,63
2023-02-06T03:30:56.641Z,69
2023-02-06T03:32:04.218Z,66
2023-02-06T03:33:16.875Z,69
2023-02-06T03:34:24.459Z,69
2023-02-06T03:35:41.785Z,68
2023-02-06T03:36:50.259Z,67
2023-02-06T03:37:58.636Z,74
2023-02-06T03:39:07.780Z,75
2023-02-06T03:40:18.305Z,74
2023-02-06T03:41:27.762Z,73
2023-02-06T03:42:36.324Z,71
2023-02-06T03:43:45.379Z,78
2023-02-06T03:44:54.748Z,75
2023-02-06T03:46:05.106Z,68
2023-02-06T03:47:13.952Z,71
2023-02-06T03:48:26.286Z,74
2023-02-06T03:49:37.421Z,78
2023-02-06T03:50:46.552Z,77
2023-02-06T03:51:56.872Z,81
2023-02-06T03:53:05.886Z,73
2023-02-06T03:54:14.566Z,72
2023-02-06T03:55:23.110Z,71
2023-02-06T03:56:32.356Z,78
2023-02-06T03:57:44.408Z,71
2023-02-06T03:58:51.837Z,71
2023-02-06T04:00:02.008Z,63
2023-02-06T04:01:11.875Z,62
2023-02-06T04:02:21.302Z,73
2023-02-06T04:03:31.801Z,66
2023-02-06T04:04:42.234Z,68
2023-02-06T04:05:51.244Z,73
2023-02-06T04:07:02.003Z,72
2023-02-06T04:08:18.628Z,71
2023-02-06T04:09:26.737Z,75
2023-02-06T04:10:36.980Z,77
2023-02-06T04:11:44.985Z,85
2023-02-06T04:12:53.465Z,81
2023-02-06T04:14:02.888Z,82
2023-02-06T04:15:11.435Z,86
2023-02-06T04:16:20.749Z,84
2023-02-06T04:17:43.501Z,85
2023-02-06T04:18:38.501Z,91
2023-02-06T04:19:49.625Z,96
2023-02-06T04:20:59.912Z,94
2023-02-06T04:22:12.140Z,94
2023-02-06T04:23:21.241Z,100
2023-02-06T04:24:31.193Z,101
2023-02-06T04:25:40.941Z,102
2023-02-06T04:26:48.653Z,101
2023-02-06T04:27:58.266Z,103
2023-02-06T04:29:09.358Z,102
2023-02-06T04:30:19.849Z,98
2023-02-06T04:31:27.526Z,107
2023-02-06T04:32:37.181Z,103
2023-02-06T04:33:45.088Z,105
2023-02-06T04:34:53.728Z,104
2023-02-06T04:36:04.136Z,106
2023-02-06T04:37:14.513Z,108
2023-02-06T04:38:23.284Z,106
2023-02-06T04:39:33.613Z,109
2023-02-06T04:40:42.676Z,112
2023-02-06T04:41:51.297Z,111
2023-02-06T04:43:01.416Z,116
2023-02-06T04:44:11.597Z,117
2023-02-06T04:45:21.524Z,118
2023-02-06T04:46:30.101Z,120
2023-02-06T04:47:39.152Z,122
2023-02-06T04:48:49.330Z,118
2023-02-06T04:49:58.868Z,115
2023-02-06T04:51:08.237Z,115
2023-02-06T04:52:16.865Z,122
2023-02-06T04:53:27.236Z,121
2023-02-06T04:54:37.897Z,114
2023-02-06T04:55:48.008Z,120
2023-02-06T04:56:57.529Z,115
2023-02-06T04:58:07.596Z,131
2023-02-06T04:59:17.841Z,136
2023-02-06T05:00:25.534Z,127
2023-02-06T05:01:33.958Z,127
2023-02-06T05:02:41.927Z,125
2023-02-06T05:03:50.754Z,113
2023-02-06T05:04:58.821Z,123
2023-02-06T05:06:07.612Z,116
2023-02-06T05:07:16.902Z,113
2023-02-06T05:08:25.298Z,119
2023-02-06T05:09:35.662Z,116
2023-02-06T05:10:44.337Z,121
2023-02-06T05:11:52.997Z,115
2023-02-06T05:13:01.475Z,122
2023-02-06T05:14:10.937Z,127
2023-02-06T05:15:19.665Z,130
2023-02-06T05:16:28.703Z,125
2023-02-06T05:17:37.921Z,128
2023-02-06T05:18:47.266Z,129
2023-02-06T05:20:00.213Z,120
2023-02-06T05:21:08.506Z,113
2023-02-06T05:22:18.769Z,109
2023-02-06T05:23:26.353Z,106
2023-02-06T05:24:35.904Z,108
2023-02-06T05:25:44.941Z,104
2023-02-06T05:26:53.911Z,98
2023-02-06T05:28:04.244Z,103
2023-02-06T05:29:14.960Z,100
2023-02-06T05:30:23.623Z,102
2023-02-06T05:31:33.155Z,101
2023-02-06T05:32:42.335Z,100
2023-02-06T05:33:52.930Z,107
2023-02-06T05:35:03.259Z,103
2023-02-06T05:36:12.696Z,100
2023-02-06T05:37:22.244Z,98
2023-02-06T05:38:33.017Z,103
2023-02-06T05:39:42.474Z,102
2023-02-06T05:40:52.775Z,98
2023-02-06T05:42:03.497Z,104
2023-02-06T05:43:12.606Z,102
2023-02-06T05:44:21.838Z,108
2023-02-06T05:45:35.947Z,107
2023-02-06T05:46:41.748Z,102
2023-02-06T05:47:48.973Z,106
2023-02-06T05:48:58.692Z,97
2023-02-06T05:50:08.540Z,101
2023-02-06T05:51:16.793Z,102
2023-02-06T05:52:26.727Z,105
2023-02-06T05:53:35.828Z,104
2023-02-06T05:54:45.077Z,98
2023-02-06T05:55:52.588Z,102
2023-02-06T05:57:02.140Z,96
2023-02-06T05:58:10.011Z,100
2023-02-06T05:59:18.543Z,98
2023-02-06T06:00:26.527Z,99
2023-02-06T06:01:34.540Z,101
2023-02-06T06:02:42.678Z,103
2023-02-06T06:03:51.529Z,104
2023-02-06T06:05:01.931Z,97
2023-02-06T06:06:09.355Z,102
2023-02-06T06:07:17.783Z,104
2023-02-06T06:08:25.192Z,96
2023-02-06T06:09:33.464Z,105
2023-02-06T06:10:42.374Z,95
2023-02-06T06:11:49.720Z,97
2023-02-06T06:12:57.233Z,95
2023-02-06T06:14:05.550Z,104
2023-02-06T06:15:13.595Z,99
2023-02-06T06:16:23.075Z,100
2023-02-06T06:17:32.304Z,100
2023-02-06T06:18:41.983Z,99
2023-02-06T06:19:51.661Z,102
2023-02-06T06:21:02.605Z,100
2023-02-06T06:22:12.857Z,97
2023-02-06T06:23:22.885Z,99
2023-02-06T06:24:30.293Z,95
2023-02-06T06:25:39.476Z,100
2023-02-06T06:26:48.658Z,106
2023-02-06T06:27:56.570Z,97
2023-02-06T06:29:05.225Z,98
2023-02-06T06:30:13.895Z,102
2023-02-06T06:31:21.921Z,105
2023-02-06T06:32:30.751Z,97
2023-02-06T06:33:38.684Z,103
2023-02-06T06:34:47.619Z,102
2023-02-06T06:35:55.319Z,102
2023-02-06T06:37:04.933Z,100
2023-02-06T06:38:13.463Z,96
2023-02-06T06:39:20.719Z,89
2023-02-06T06:40:29.379Z,95
2023-02-06T06:41:37.456Z,91
2023-02-06T06:42:44.855Z,90
2023-02-06T06:43:54.260Z,91
2023-02-06T06:45:02.585Z,88
2023-02-06T06:46:10.131Z,89
2023-02-06T06:47:17.835Z,88
2023-02-06T06:48:25.049Z,83
2023-02-06T06:49:33.590Z,85
2023-02-06T06:50:42.722Z,78
2023-02-06T06:51:50.383Z,79
2023-02-06T06:52:58.766Z,80
2023-02-06T06:54:07.318Z,79
2023-02-06T06:55:15.076Z,75
2023-02-06T06:56:22.690Z,76
2023-02-06T06:57:37.078Z,74
2023-02-06T06:58:50.855Z,72
2023-02-06T06:59:59.385Z,67
2023-02-06T07:01:08.378Z,71
2023-02-06T07:02:18.919Z,65
2023-02-06T07:03:26.551Z,60
2023-02-06T07:04:36.834Z,71
2023-02-06T07:05:46.620Z,64
2023-02-06T07:06:55.512Z,61
2023-02-06T07:08:05.019Z,56
2023-02-06T07:09:14.301Z,63
2023-02-06T07:10:21.503Z,51
2023-02-06T07:11:30.921Z,53
2023-02-06T07:12:39.556Z,57
2023-02-06T07:13:48.466Z,59
2023-02-06T07:14:57.679Z,54
2023-02-06T07:16:05.201Z,53
2023-02-06T07:17:13.048Z,47
2023-02-06T07:18:20.911Z,41
2023-02-06T07:19:29.592Z,42
2023-02-06T07:20:38.845Z,41
2023-02-06T07:21:49.577Z,40
2023-02-06T07:22:57.359Z,36
2023-02-06T07:24:05.674Z,44
2023-02-06T07:25:13.423Z,51
2023-02-06T07:26:22.092Z,50
2023-02-06T07:27:30.620Z,59
2023-02-06T07:28:38.891Z,44
2023-02-06T07:29:46.550Z,51
2023-02-06T07:30:54.825Z,58
2023-02-06T07:32:05.459Z,51
2023-02-06T07:33:12.651Z,55
2023-02-06T07:34:20.270Z,54
2023-02-06T07:35:31.804Z,60
2023-02-06T07:36:40.469Z,63
2023-02-06T07:37:48.994Z,81
2023-02-06T07:39:00.614Z,70
2023-02-06T07:40:07.835Z,74
2023-02-06T07:41:15.644Z,69
2023-02-06T07:42:24.671Z,64
2023-02-06T07:43:31.911Z,70
2023-02-06T07:44:41.183Z,71
2023-02-06T07:45:50.524Z,69
2023-02-06T07:47:00.300Z,75
2023-02-06T07:48:07.579Z,62
2023-02-06T07:49:15.828Z,68
2023-02-06T07:50:24.466Z,84
2023-02-06T07:51:32.755Z,68
2023-02-06T07:52:43.123Z,78
2023-02-06T07:53:50.578Z,70
2023-02-06T07:54:58.546Z,69
2023-02-06T07:56:06.214Z,48
2023-02-06T07:57:17.082Z,54
2023-02-06T07:58:24.557Z,53
2023-02-06T07:59:32.915Z,59
2023-02-06T08:00:40.999Z,54
2023-02-06T08:01:48.699Z,52
2023-02-06T08:02:56.905Z,48
2023-02-06T08:04:05.049Z,48
2023-02-06T08:05:14.149Z,46
2023-02-06T08:06:24.414Z,43
2023-02-06T08:07:31.976Z,41
2023-02-06T08:08:39.780Z,37
2023-02-06T08:09:47.855Z,37
2023-02-06T08:10:55.054Z,34
2023-02-06T08:12:03.638Z,34
2023-02-06T08:13:12.107Z,38
2023-02-06T08:14:22.174Z,31
2023-02-06T08:15:31.550Z,33
2023-02-06T08:16:39.869Z,38
2023-02-06T08:17:47.566Z,34
2023-02-06T08:18:55.767Z,28
2023-02-06T08:20:03.702Z,34
2023-02-06T08:21:11.385Z,37
2023-02-06T08:22:24.595Z,36
2023-02-06T08:23:33.144Z,28
2023-02-06T08:24:40.657Z,31
2023-02-06T08:25:51.249Z,29
2023-02-06T08:26:59.303Z,27
2023-02-06T08:28:08.821Z,29
2023-02-06T08:29:16.082Z,28
2023-02-06T08:30:24.743Z,34
2023-02-06T08:31:33.894Z,27
2023-02-06T08:32:41.487Z,26
2023-02-06T08:33:49.905Z,39
2023-02-06T08:34:58.048Z,31
2023-02-06T08:36:07.985Z,29
2023-02-06T08:37:16.431Z,39
2023-02-06T08:38:24.604Z,32
2023-02-06T08:39:32.515Z,30
2023-02-06T08:40:41.369Z,31
2023-02-06T08:41:52.563Z,25
2023-02-06T08:43:00.550Z,33
2023-02-06T08:44:09.497Z,35
2023-02-06T08:45:17.149Z,29
2023-02-06T08:46:25.412Z,25
2023-02-06T08:47:33.666Z,43
2023-02-06T08:48:42.048Z,29
2023-02-06T08:49:50.372Z,29
2023-02-06T08:50:57.756Z,45
2023-02-06T08:52:06.652Z,31
2023-02-06T08:53:14.941Z,31
2023-02-06T08:54:23.320Z,25
2023-02-06T08:55:32.384Z,35
2023-02-06T08:56:41.462Z,40
2023-02-06T08:57:48.963Z,41
2023-02-06T08:58:56.787Z,29
2023-02-06T09:00:05.857Z,34
2023-02-06T09:01:15.004Z,34
2023-02-06T09:02:22.868Z,43
2023-02-06T09:03:31.056Z,30
2023-02-06T09:04:42.195Z,29
2023-02-06T09:05:52.628Z,25
2023-02-06T09:07:04.846Z,25
2023-02-06T09:08:13.968Z,31
2023-02-06T09:09:21.144Z,26
2023-02-06T09:10:28.636Z,42
2023-02-06T09:11:37.056Z,36
2023-02-06T09:12:45.773Z,25
2023-02-06T09:13:54.577Z,25
2023-02-06T09:15:04.299Z,26
2023-02-06T09:16:12.783Z,35
2023-02-06T09:17:24.293Z,29
2023-02-06T09:18:33.106Z,33
2023-02-06T09:19:41.885Z,35
2023-02-06T09:20:49.272Z,46
2023-02-06T09:21:56.909Z,50
2023-02-06T09:23:05.005Z,49
2023-02-06T09:24:13.203Z,25
2023-02-06T09:25:21.416Z,29
2023-02-06T09:26:29.025Z,38
2023-02-06T09:27:37.832Z,30
2023-02-06T09:28:45.681Z,36
2023-02-06T09:29:59.428Z,51
2023-02-06T09:31:07.391Z,32
2023-02-06T09:32:15.657Z,44
2023-02-06T09:33:24.679Z,27
2023-02-06T09:34:44.644Z,25
2023-02-06T09:35:46.050Z,36
2023-02-06T09:36:54.370Z,36
2023-02-06T09:38:01.414Z,40
2023-02-06T09:39:08.793Z,42
2023-02-06T09:40:16.764Z,32
2023-02-06T09:41:25.481Z,51
2023-02-06T09:42:39.038Z,38
2023-02-06T09:43:46.562Z,25
2023-02-06T09:44:54.955Z,61
2023-02-06T09:46:05.348Z,79
2023-02-06T09:47:12.889Z,76
2023-02-06T09:48:29.643Z,52
2023-02-06T09:49:38.354Z,49
2023-02-06T09:50:48.442Z,51
2023-02-06T09:52:07.148Z,39
2023-02-06T09:53:25.167Z,25
2023-02-06T09:54:38.727Z,31
2023-02-06T09:55:54.677Z,43
2023-02-06T09:57:05.061Z,31
2023-02-06T09:58:13.383Z,25
2023-02-06T09:59:24.431Z,27
2023-02-06T10:00:39.928Z,32
2023-02-06T10:01:53.313Z,47
2023-02-06T10:03:11.644Z,44
2023-02-06T10:04:24.526Z,36
2023-02-06T10:05:39.745Z,45
2023-02-06T10:06:53.109Z,31
2023-02-06T10:08:03.460Z,27
2023-02-06T10:09:18.642Z,32
2023-02-06T10:10:34.774Z,25
2023-02-06T10:11:47.085Z,37
2023-02-06T10:12:57.057Z,34
2023-02-06T10:14:07.397Z,27
2023-02-06T10:15:21.256Z,41
2023-02-06T10:16:34.891Z,25
2023-02-06T10:17:49.161Z,30
2023-02-06T10:19:02.282Z,39
2023-02-06T10:20:19.786Z,59
2023-02-06T10:21:34.134Z,55
2023-02-06T10:22:45.064Z,53
2023-02-06T10:23:57.621Z,40
2023-02-06T10:25:15.084Z,28
2023-02-06T10:26:32.853Z,36
2023-02-06T10:27:40.419Z,32
2023-02-06T10:28:49.215Z,55
2023-02-06T10:29:59.478Z,47
2023-02-06T10:31:07.695Z,36
2023-02-06T10:32:21.294Z,35
2023-02-06T10:33:37.932Z,42
2023-02-06T10:34:47.784Z,33
2023-02-06T10:35:56.805Z,36
2023-02-06T10:37:14.026Z,29
2023-02-06T10:38:33.102Z,29
2023-02-06T10:39:42.129Z,41
2023-02-06T10:40:58.152Z,34
2023-02-06T10:42:10.716Z,25
2023-02-06T10:43:26.867Z,65
2023-02-06T10:44:41.272Z,69
2023-02-06T10:45:53.627Z,53
2023-02-06T10:47:01.450Z,75
2023-02-06T10:48:09.768Z,67
2023-02-06T10:49:21.861Z,61
2023-02-06T10:50:38.126Z,46
2023-02-06T10:51:48.714Z,53
2023-02-06T10:52:59.952Z,51
2023-02-06T10:54:10.430Z,46
2023-02-06T10:55:18.730Z,25
2023-02-06T10:56:31.853Z,36
2023-02-06T10:57:45.269Z,44
2023-02-06T10:58:52.447Z,52
2023-02-06T11:00:04.062Z,39
2023-02-06T11:01:24.953Z,25
2023-02-06T11:02:21.421Z,43
2023-02-06T11:03:39.866Z,51
2023-02-06T11:04:49.681Z,88
2023-02-06T11:05:57.650Z,81
2023-02-06T11:07:05.086Z,58
2023-02-06T11:08:19.088Z,45
2023-02-06T11:09:32.657Z,58
2023-02-06T11:10:39.878Z,43
2023-02-06T11:11:48.376Z,60
2023-02-06T11:12:55.255Z,47
2023-02-06T11:14:11.986Z,35
2023-02-06T11:15:22.776Z,41
2023-02-06T11:16:35.227Z,34
2023-02-06T11:17:42.305Z,28
2023-02-06T11:18:49.835Z,56
2023-02-06T11:19:57.143Z,50
2023-02-06T11:21:05.473Z,57
2023-02-06T11:22:13.527Z,37
2023-02-06T11:23:21.548Z,38
2023-02-06T11:24:32.919Z,25
2023-02-06T11:25:40.746Z,34
2023-02-06T11:26:48.102Z,34
2023-02-06T11:28:02.115Z,31
2023-02-06T11:29:09.301Z,25
2023-02-06T11:30:25.422Z,25
2023-02-06T11:31:33.526Z,25
2023-02-06T11:33:03.567Z,29
2023-02-06T11:33:57.829Z,25
2023-02-06T11:35:05.295Z,29
2023-02-06T11:36:14.942Z,41
2023-02-06T11:37:31.947Z,81
2023-02-06T11:38:43.883Z,68
2023-02-06T11:40:01.144Z,76
2023-02-06T11:41:26.896Z,77
2023-02-06T11:42:35.092Z,94
2023-02-06T11:43:42.655Z,75
2023-02-06T11:44:51.115Z,82
2023-02-06T11:45:58.724Z,57
2023-02-06T11:47:09.943Z,45
2023-02-06T11:48:28.579Z,45
2023-02-06T11:49:40.029Z,51
2023-02-06T11:50:47.912Z,41
2023-02-06T11:51:56.399Z,100
2023-02-06T11:53:05.743Z,69
2023-02-06T11:54:15.447Z,50
2023-02-06T11:55:26.771Z,53
2023-02-06T11:56:35.044Z,47
2023-02-06T11:57:44.878Z,45
2023-02-06T11:58:52.544Z,43
2023-02-06T12:00:09.612Z,47
2023-02-06T12:01:26.605Z,70
2023-02-06T12:02:34.574Z,80
2023-02-06T12:03:42.326Z,49
2023-02-06T12:04:54.553Z,46
2023-02-06T12:06:07.271Z,63
2023-02-06T12:07:19.411Z,39
2023-02-06T12:08:26.640Z,33
2023-02-06T12:09:34.579Z,51
2023-02-06T12:10:43.597Z,46
2023-02-06T12:11:56.755Z,50
2023-02-06T12:13:09.643Z,49
2023-02-06T12:14:21.759Z,58
2023-02-06T12:15:45.777Z,58
2023-02-06T12:16:45.815Z,50
2023-02-06T12:17:54.338Z,53
2023-02-06T12:19:05.690Z,60
2023-02-06T12:20:12.677Z,48
2023-02-06T12:21:20.220Z,47
2023-02-06T12:22:39.442Z,56
2023-02-06T12:23:49.051Z,49
2023-02-06T12:25:02.468Z,47
2023-02-06T12:26:10.814Z,45
2023-02-06T12:27:21.184Z,50
2023-02-06T12:28:34.032Z,43
2023-02-06T12:29:43.457Z,47
2023-02-06T12:30:52.513Z,42
2023-02-06T12:32:01.059Z,52
2023-02-06T12:33:14.621Z,57
2023-02-06T12:34:26.059Z,40
2023-02-06T12:35:35.808Z,37
2023-02-06T12:36:54.499Z,35
2023-02-06T12:38:07.724Z,46
2023-02-06T12:39:23.360Z,46
2023-02-06T12:40:31.579Z,65
2023-02-06T12:41:39.022Z,48
2023-02-06T12:42:53.608Z,30
2023-02-06T12:44:02.156Z,32
2023-02-06T12:45:15.501Z,29
2023-02-06T12:46:34.140Z,31
2023-02-06T12:47:43.344Z,31
2023-02-06T12:48:52.253Z,57
2023-02-06T12:50:12.458Z,45
2023-02-06T12:51:27.173Z,54
2023-02-06T12:52:37.110Z,45
2023-02-06T12:53:50.378Z,75
2023-02-06T12:55:02.714Z,41
2023-02-06T12:56:20.386Z,39
2023-02-06T12:57:27.594Z,39
2023-02-06T12:58:35.732Z,47
2023-02-06T12:59:57.768Z,54
2023-02-06T13:00:58.754Z,50
2023-02-06T13:02:12.702Z,38
2023-02-06T13:03:30.726Z,52
2023-02-06T13:04:40.912Z,57
2023-02-06T13:05:51.713Z,63
2023-02-06T13:07:06.360Z,51
2023-02-06T13:08:16.277Z,57
2023-02-06T13:09:28.867Z,52
2023-02-06T13:10:37.559Z,56
2023-02-06T13:11:48.314Z,64
2023-02-06T13:12:57.253Z,51
2023-02-06T13:14:04.615Z,37
2023-02-06T13:15:20.521Z,48
2023-02-06T13:16:30.861Z,53
2023-02-06T13:17:41.712Z,42
2023-02-06T13:18:53.152Z,50
2023-02-06T13:20:02.269Z,53
2023-02-06T13:21:15.371Z,61
2023-02-06T13:22:27.385Z,51
2023-02-06T13:23:42.878Z,57
2023-02-06T13:24:57.104Z,56
2023-02-06T13:26:06.276Z,52
2023-02-06T13:27:13.894Z,53
2023-02-06T13:28:30.160Z,47
2023-02-06T13:29:41.341Z,60
2023-02-06T13:30:48.783Z,57
2023-02-06T13:32:05.326Z,59
2023-02-06T13:33:19.578Z,54
2023-02-06T13:34:28.590Z,55
2023-02-06T13:35:38.804Z,48
2023-02-06T13:36:57.442Z,46
2023-02-06T13:38:05.166Z,51
2023-02-06T13:39:20.963Z,53
2023-02-06T13:40:32.711Z,53
2023-02-06T13:41:42.151Z,49
2023-02-06T13:42:49.397Z,46
2023-02-06T13:43:58.238Z,48
2023-02-06T13:45:09.203Z,52
2023-02-06T13:46:28.745Z,50
2023-02-06T13:47:47.622Z,49
2023-02-06T13:49:00.992Z,51
2023-02-06T13:50:20.005Z,52
2023-02-06T13:51:37.878Z,45
2023-02-06T13:52:51.423Z,45
2023-02-06T13:54:04.369Z,55
2023-02-06T13:55:15.178Z,47
2023-02-06T13:56:33.439Z,54
2023-02-06T13:57:49.888Z,52
2023-02-06T13:59:05.550Z,46
2023-02-06T14:00:18.678Z,41
2023-02-06T14:01:27.702Z,56
2023-02-06T14:02:35.405Z,50
2023-02-06T14:03:43.428Z,46
2023-02-06T14:04:51.468Z,39
2023-02-06T14:05:59.649Z,40
2023-02-06T14:07:12.898Z,40
2023-02-06T14:08:31.122Z,50
2023-02-06T14:09:45.946Z,52
2023-02-06T14:11:00.943Z,52
2023-02-06T14:12:13.404Z,45
2023-02-06T14:13:37.524Z,45
2023-02-06T14:14:49.753Z,48
2023-02-06T14:16:09.721Z,47
2023-02-06T14:17:25.990Z,47
2023-02-06T14:18:37.134Z,43
2023-02-06T14:19:46.275Z,44
2023-02-06T14:21:05.172Z,45
2023-02-06T14:22:16.228Z,50
2023-02-06T14:23:31.696Z,50
2023-02-06T14:24:49.806Z,44
2023-02-06T14:26:08.854Z,47
2023-02-06T14:27:26.548Z,43
2023-02-06T14:28:40.592Z,48
2023-02-06T14:29:47.887Z,45
2023-02-06T14:30:58.113Z,46
2023-02-06T14:32:14.215Z,48
2023-02-06T14:33:23.247Z,47
2023-02-06T14:34:39.214Z,46
2023-02-06T14:35:57.162Z,43
2023-02-06T14:37:10.415Z,39
2023-02-06T14:38:27.974Z,40
2023-02-06T14:39:37.315Z,46
2023-02-06T14:40:55.266Z,44
2023-02-06T14:42:03.114Z,44
2023-02-06T14:43:11.390Z,44
2023-02-06T14:44:24.490Z,49
2023-02-06T14:45:38.681Z,62
2023-02-06T14:46:39.864Z,44
2023-02-06T14:47:48.207Z,43
2023-02-06T14:48:56.865Z,47
2023-02-06T14:50:04.138Z,45
2023-02-06T14:51:13.284Z,47
2023-02-06T14:52:33.637Z,45
2023-02-06T14:53:42.761Z,40
2023-02-06T14:54:50.698Z,42
2023-02-06T14:56:00.692Z,43
2023-02-06T14:57:14.457Z,45
2023-02-06T14:58:28.052Z,44
2023-02-06T14:59:42.278Z,49
2023-02-06T15:01:04.763Z,42
2023-02-06T15:02:15.477Z,48
2023-02-06T15:03:28.580Z,51
2023-02-06T15:04:38.122Z,42
2023-02-06T15:05:52.530Z,45
2023-02-06T15:07:08.294Z,50
2023-02-06T15:08:17.569Z,56
2023-02-06T15:09:25.388Z,45
2023-02-06T15:10:37.572Z,44
2023-02-06T15:11:46.850Z,61
2023-02-06T15:12:54.274Z,44
2023-02-06T15:14:02.584Z,51
2023-02-06T15:15:09.693Z,58
2023-02-06T15:16:21.214Z,45
2023-02-06T15:17:31.956Z,53
2023-02-06T15:18:40.638Z,47
2023-02-06T15:19:48.958Z,55
2023-02-06T15:20:56.443Z,49
2023-02-06T15:22:09.663Z,44
2023-02-06T15:23:18.671Z,46
2023-02-06T15:24:29.718Z,48
2023-02-06T15:25:49.984Z,46
2023-02-06T15:27:02.491Z,48
2023-02-06T15:28:17.364Z,48
2023-02-06T15:29:26.028Z,51
2023-02-06T15:30:35.773Z,46
2023-02-06T15:31:43.207Z,62
2023-02-06T15:32:51.487Z,50
2023-02-06T15:33:59.955Z,49
2023-02-06T15:35:08.444Z,49
2023-02-06T15:36:23.437Z,50
2023-02-06T15:37:34.979Z,56
2023-02-06T15:38:42.596Z,53
2023-02-06T15:39:51.210Z,64
2023-02-06T15:40:59.429Z,57
2023-02-06T15:42:07.012Z,54
2023-02-06T15:43:14.418Z,55
2023-02-06T15:44:21.590Z,57
2023-02-06T15:45:28.830Z,58
2023-02-06T15:46:39.245Z,55
2023-02-06T15:47:47.497Z,63
2023-02-06T15:48:55.366Z,55
2023-02-06T15:50:02.691Z,58
2023-02-06T15:51:10.997Z,62
2023-02-06T15:52:26.319Z,53
2023-02-06T15:53:39.812Z,63
2023-02-06T15:54:49.129Z,56
2023-02-06T15:55:56.773Z,54
2023-02-06T15:57:04.857Z,62
2023-02-06T15:58:12.973Z,67
2023-02-06T15:59:21.242Z,69
2023-02-06T16:00:28.825Z,63
2023-02-06T16:01:37.484Z,68
2023-02-06T16:02:46.204Z,67
2023-02-06T16:03:53.950Z,72
2023-02-06T16:05:01.514Z,64
2023-02-06T16:06:09.310Z,71
2023-02-06T16:07:20.191Z,73
2023-02-06T16:08:30.050Z,75
2023-02-06T16:09:40.546Z,74
2023-02-06T16:10:48.675Z,76
2023-02-06T16:12:01.341Z,74
2023-02-06T16:13:10.642Z,71
2023-02-06T16:14:18.757Z,78
2023-02-06T16:15:37.891Z,86
2023-02-06T16:16:46.792Z,81
2023-02-06T16:18:01.520Z,86
2023-02-06T16:19:19.161Z,90
2023-02-06T16:20:33.761Z,92
2023-02-06T16:21:42.284Z,85
2023-02-06T16:22:51.258Z,91
2023-02-06T16:24:01.064Z,98
2023-02-06T16:25:08.514Z,94
2023-02-06T16:26:26.638Z,91
2023-02-06T16:27:38.316Z,101
2023-02-06T16:28:45.345Z,94
2023-02-06T16:30:01.744Z,101
2023-02-06T16:31:10.598Z,97
2023-02-06T16:32:18.738Z,103
2023-02-06T16:33:27.093Z,106
2023-02-06T16:34:37.517Z,101
2023-02-06T16:35:44.864Z,102
2023-02-06T16:36:53.077Z,114
2023-02-06T16:38:01.040Z,116
2023-02-06T16:39:10.236Z,123